sensor_id;sensor_type;location;lat;lon;timestamp;P1;durP1;ratioP1;P2;durP2;ratioP2
67715;SDS011;54508;43.238;25.306;2022-07-29T00:00:34;6.07;;;5.13;;
67715;SDS011;54508;43.238;25.306;2022-07-29T00:03:00;5.55;;;5.05;;
67715;SDS011;54508;43.238;25.306;2022-07-29T00:05:25;5.50;;;5.00;;
67715;SDS011;54508;43.238;25.306;2022-07-29T00:07:51;5.97;;;5.37;;
67715;SDS011;54508;43.238;25.306;2022-07-29T00:10:16;6.22;;;5.53;;
67715;SDS011;54508;43.238;25.306;2022-07-29T00:12:42;5.80;;;5.30;;
67715;SDS011;54508;43.238;25.306;2022-07-29T00:15:07;5.37;;;4.87;;
67715;SDS011;54508;43.238;25.306;2022-07-29T00:17:33;5.55;;;5.05;;
67715;SDS011;54508;43.238;25.306;2022-07-29T00:19:59;5.82;;;4.90;;
67715;SDS011;54508;43.238;25.306;2022-07-29T00:22:24;5.50;;;5.00;;
67715;SDS011;54508;43.238;25.306;2022-07-29T00:24:50;6.00;;;5.40;;
67715;SDS011;54508;43.238;25.306;2022-07-29T00:27:16;6.47;;;5.63;;
67715;SDS011;54508;43.238;25.306;2022-07-29T00:29:42;7.03;;;4.97;;
67715;SDS011;54508;43.238;25.306;2022-07-29T00:32:07;5.80;;;5.30;;
67715;SDS011;54508;43.238;25.306;2022-07-29T00:34:33;6.63;;;5.40;;
67715;SDS011;54508;43.238;25.306;2022-07-29T00:37:17;6.05;;;5.32;;
67715;SDS011;54508;43.238;25.306;2022-07-29T00:39:42;5.57;;;5.07;;
67715;SDS011;54508;43.238;25.306;2022-07-29T00:42:08;5.70;;;5.20;;
67715;SDS011;54508;43.238;25.306;2022-07-29T00:44:38;5.35;;;4.85;;
67715;SDS011;54508;43.238;25.306;2022-07-29T00:47:04;6.18;;;5.45;;
67715;SDS011;54508;43.238;25.306;2022-07-29T00:49:30;6.10;;;5.30;;
67715;SDS011;54508;43.238;25.306;2022-07-29T00:51:56;6.17;;;5.67;;
67715;SDS011;54508;43.238;25.306;2022-07-29T00:54:22;6.05;;;5.45;;
67715;SDS011;54508;43.238;25.306;2022-07-29T00:56:48;5.85;;;5.35;;
67715;SDS011;54508;43.238;25.306;2022-07-29T00:59:14;5.97;;;5.20;;
67715;SDS011;54508;43.238;25.306;2022-07-29T01:01:39;5.85;;;5.32;;
67715;SDS011;54508;43.238;25.306;2022-07-29T01:04:05;5.70;;;5.10;;
67715;SDS011;54508;43.238;25.306;2022-07-29T01:06:31;5.85;;;5.18;;
67715;SDS011;54508;43.238;25.306;2022-07-29T01:08:58;6.03;;;5.07;;
67715;SDS011;54508;43.238;25.306;2022-07-29T01:11:24;5.67;;;5.07;;
67715;SDS011;54508;43.238;25.306;2022-07-29T01:13:50;5.75;;;5.20;;
67715;SDS011;54508;43.238;25.306;2022-07-29T01:16:31;5.90;;;5.25;;
67715;SDS011;54508;43.238;25.306;2022-07-29T01:19:00;6.18;;;5.57;;
67715;SDS011;54508;43.238;25.306;2022-07-29T01:21:44;7.40;;;5.17;;
67715;SDS011;54508;43.238;25.306;2022-07-29T01:27:32;5.88;;;5.38;;
67715;SDS011;54508;43.238;25.306;2022-07-29T01:30:06;6.38;;;5.45;;
67715;SDS011;54508;43.238;25.306;2022-07-29T01:32:33;6.37;;;5.77;;
67715;SDS011;54508;43.238;25.306;2022-07-29T01:38:01;6.03;;;5.43;;
67715;SDS011;54508;43.238;25.306;2022-07-29T01:43:16;6.32;;;5.20;;
67715;SDS011;54508;43.238;25.306;2022-07-29T01:45:45;6.37;;;5.63;;
67715;SDS011;54508;43.238;25.306;2022-07-29T01:48:15;6.10;;;5.50;;
67715;SDS011;54508;43.238;25.306;2022-07-29T01:50:47;6.40;;;5.43;;
67715;SDS011;54508;43.238;25.306;2022-07-29T01:53:15;5.60;;;5.10;;
67715;SDS011;54508;43.238;25.306;2022-07-29T01:55:44;6.03;;;5.43;;
67715;SDS011;54508;43.238;25.306;2022-07-29T01:58:10;5.97;;;5.37;;
67715;SDS011;54508;43.238;25.306;2022-07-29T02:00:37;6.30;;;5.43;;
67715;SDS011;54508;43.238;25.306;2022-07-29T02:03:08;6.05;;;5.20;;
67715;SDS011;54508;43.238;25.306;2022-07-29T02:05:35;6.20;;;5.60;;
67715;SDS011;54508;43.238;25.306;2022-07-29T02:08:01;6.35;;;5.75;;
67715;SDS011;54508;43.238;25.306;2022-07-29T02:10:28;6.10;;;5.50;;
67715;SDS011;54508;43.238;25.306;2022-07-29T02:12:55;6.20;;;5.57;;
67715;SDS011;54508;43.238;25.306;2022-07-29T02:15:22;5.88;;;5.38;;
67715;SDS011;54508;43.238;25.306;2022-07-29T02:17:51;9.02;;;5.88;;
67715;SDS011;54508;43.238;25.306;2022-07-29T02:20:20;6.28;;;5.68;;
67715;SDS011;54508;43.238;25.306;2022-07-29T02:22:47;6.07;;;5.45;;
67715;SDS011;54508;43.238;25.306;2022-07-29T02:25:14;6.25;;;5.40;;
67715;SDS011;54508;43.238;25.306;2022-07-29T02:27:40;6.32;;;5.50;;
67715;SDS011;54508;43.238;25.306;2022-07-29T02:30:06;5.63;;;5.13;;
67715;SDS011;54508;43.238;25.306;2022-07-29T02:32:34;6.95;;;5.60;;
67715;SDS011;54508;43.238;25.306;2022-07-29T02:35:00;5.90;;;5.32;;
67715;SDS011;54508;43.238;25.306;2022-07-29T02:37:26;6.55;;;5.60;;
67715;SDS011;54508;43.238;25.306;2022-07-29T02:39:54;6.03;;;5.43;;
67715;SDS011;54508;43.238;25.306;2022-07-29T02:42:21;7.32;;;5.22;;
67715;SDS011;54508;43.238;25.306;2022-07-29T02:44:47;6.03;;;5.43;;
67715;SDS011;54508;43.238;25.306;2022-07-29T02:49:42;6.03;;;5.32;;
67715;SDS011;54508;43.238;25.306;2022-07-29T02:52:10;6.30;;;5.70;;
67715;SDS011;54508;43.238;25.306;2022-07-29T02:57:36;7.10;;;6.18;;
67715;SDS011;54508;43.238;25.306;2022-07-29T03:00:12;6.93;;;6.25;;
67715;SDS011;54508;43.238;25.306;2022-07-29T03:02:40;6.97;;;5.85;;
67715;SDS011;54508;43.238;25.306;2022-07-29T03:05:19;6.07;;;5.50;;
67715;SDS011;54508;43.238;25.306;2022-07-29T03:07:46;6.18;;;5.57;;
67715;SDS011;54508;43.238;25.306;2022-07-29T03:10:14;7.55;;;5.95;;
67715;SDS011;54508;43.238;25.306;2022-07-29T03:12:40;6.30;;;5.70;;
67715;SDS011;54508;43.238;25.306;2022-07-29T03:15:06;7.03;;;6.23;;
67715;SDS011;54508;43.238;25.306;2022-07-29T03:17:33;6.70;;;5.65;;
67715;SDS011;54508;43.238;25.306;2022-07-29T03:19:58;6.32;;;5.72;;
67715;SDS011;54508;43.238;25.306;2022-07-29T03:22:24;6.83;;;6.13;;
67715;SDS011;54508;43.238;25.306;2022-07-29T03:24:50;8.13;;;5.65;;
67715;SDS011;54508;43.238;25.306;2022-07-29T03:27:15;6.50;;;5.70;;
67715;SDS011;54508;43.238;25.306;2022-07-29T03:29:41;6.83;;;5.90;;
67715;SDS011;54508;43.238;25.306;2022-07-29T03:32:06;6.70;;;6.10;;
67715;SDS011;54508;43.238;25.306;2022-07-29T03:34:32;6.97;;;6.13;;
67715;SDS011;54508;43.238;25.306;2022-07-29T03:36:57;7.10;;;6.40;;
67715;SDS011;54508;43.238;25.306;2022-07-29T03:39:24;6.50;;;5.90;;
67715;SDS011;54508;43.238;25.306;2022-07-29T03:41:53;6.88;;;6.28;;
67715;SDS011;54508;43.238;25.306;2022-07-29T03:44:20;8.18;;;5.88;;
67715;SDS011;54508;43.238;25.306;2022-07-29T03:46:46;6.70;;;6.00;;
67715;SDS011;54508;43.238;25.306;2022-07-29T03:49:14;6.80;;;6.10;;
67715;SDS011;54508;43.238;25.306;2022-07-29T03:51:41;6.28;;;5.68;;
67715;SDS011;54508;43.238;25.306;2022-07-29T03:54:06;7.15;;;6.28;;
67715;SDS011;54508;43.238;25.306;2022-07-29T03:56:32;6.82;;;6.15;;
67715;SDS011;54508;43.238;25.306;2022-07-29T03:59:00;6.80;;;6.20;;
67715;SDS011;54508;43.238;25.306;2022-07-29T04:01:26;7.75;;;6.00;;
67715;SDS011;54508;43.238;25.306;2022-07-29T04:03:53;6.30;;;5.70;;
67715;SDS011;54508;43.238;25.306;2022-07-29T04:06:18;8.20;;;6.03;;
67715;SDS011;54508;43.238;25.306;2022-07-29T04:08:44;7.70;;;6.60;;
67715;SDS011;54508;43.238;25.306;2022-07-29T04:11:09;6.73;;;6.03;;
67715;SDS011;54508;43.238;25.306;2022-07-29T04:13:35;8.07;;;6.13;;
67715;SDS011;54508;43.238;25.306;2022-07-29T04:16:00;7.20;;;6.40;;
67715;SDS011;54508;43.238;25.306;2022-07-29T04:18:26;6.80;;;6.13;;
67715;SDS011;54508;43.238;25.306;2022-07-29T04:20:51;6.47;;;5.88;;
67715;SDS011;54508;43.238;25.306;2022-07-29T04:23:17;6.90;;;6.18;;
67715;SDS011;54508;43.238;25.306;2022-07-29T04:25:42;7.07;;;6.17;;
67715;SDS011;54508;43.238;25.306;2022-07-29T04:28:08;6.87;;;6.20;;
67715;SDS011;54508;43.238;25.306;2022-07-29T04:30:35;6.53;;;5.68;;
67715;SDS011;54508;43.238;25.306;2022-07-29T04:33:02;7.05;;;6.32;;
67715;SDS011;54508;43.238;25.306;2022-07-29T04:35:29;7.43;;;6.43;;
67715;SDS011;54508;43.238;25.306;2022-07-29T04:37:55;6.63;;;6.03;;
67715;SDS011;54508;43.238;25.306;2022-07-29T04:40:21;7.23;;;6.53;;
67715;SDS011;54508;43.238;25.306;2022-07-29T04:42:47;6.57;;;5.90;;
67715;SDS011;54508;43.238;25.306;2022-07-29T04:45:13;7.50;;;6.37;;
67715;SDS011;54508;43.238;25.306;2022-07-29T04:47:38;7.75;;;6.22;;
67715;SDS011;54508;43.238;25.306;2022-07-29T04:50:04;5.90;;;5.40;;
67715;SDS011;54508;43.238;25.306;2022-07-29T04:52:32;6.18;;;5.57;;
67715;SDS011;54508;43.238;25.306;2022-07-29T04:54:57;6.87;;;6.17;;
67715;SDS011;54508;43.238;25.306;2022-07-29T04:57:23;6.30;;;5.72;;
67715;SDS011;54508;43.238;25.306;2022-07-29T04:59:48;6.43;;;5.80;;
67715;SDS011;54508;43.238;25.306;2022-07-29T05:02:14;7.10;;;6.10;;
67715;SDS011;54508;43.238;25.306;2022-07-29T05:04:39;7.03;;;6.33;;
67715;SDS011;54508;43.238;25.306;2022-07-29T05:07:05;8.65;;;6.35;;
67715;SDS011;54508;43.238;25.306;2022-07-29T05:09:30;6.37;;;5.57;;
67715;SDS011;54508;43.238;25.306;2022-07-29T05:11:57;7.38;;;5.97;;
67715;SDS011;54508;43.238;25.306;2022-07-29T05:14:22;6.80;;;6.20;;
67715;SDS011;54508;43.238;25.306;2022-07-29T05:16:48;6.35;;;5.80;;
67715;SDS011;54508;43.238;25.306;2022-07-29T05:19:16;11.63;;;10.43;;
67715;SDS011;54508;43.238;25.306;2022-07-29T05:21:41;17.25;;;10.77;;
67715;SDS011;54508;43.238;25.306;2022-07-29T05:24:07;17.75;;;10.73;;
67715;SDS011;54508;43.238;25.306;2022-07-29T05:26:32;13.35;;;11.35;;
67715;SDS011;54508;43.238;25.306;2022-07-29T05:28:58;17.97;;;10.63;;
67715;SDS011;54508;43.238;25.306;2022-07-29T05:31:23;14.20;;;10.47;;
67715;SDS011;54508;43.238;25.306;2022-07-29T05:33:49;18.17;;;11.30;;
67715;SDS011;54508;43.238;25.306;2022-07-29T05:36:14;18.80;;;11.65;;
67715;SDS011;54508;43.238;25.306;2022-07-29T05:38:40;13.07;;;10.23;;
67715;SDS011;54508;43.238;25.306;2022-07-29T05:41:05;21.50;;;11.57;;
67715;SDS011;54508;43.238;25.306;2022-07-29T05:43:31;14.25;;;10.70;;
67715;SDS011;54508;43.238;25.306;2022-07-29T05:45:57;20.90;;;10.90;;
67715;SDS011;54508;43.238;25.306;2022-07-29T05:48:23;17.80;;;11.73;;
67715;SDS011;54508;43.238;25.306;2022-07-29T05:50:48;21.23;;;17.47;;
67715;SDS011;54508;43.238;25.306;2022-07-29T05:53:14;22.23;;;14.50;;
67715;SDS011;54508;43.238;25.306;2022-07-29T05:55:39;26.10;;;20.93;;
67715;SDS011;54508;43.238;25.306;2022-07-29T06:01:02;15.98;;;10.90;;
67715;SDS011;54508;43.238;25.306;2022-07-29T06:03:27;13.70;;;9.83;;
67715;SDS011;54508;43.238;25.306;2022-07-29T06:05:53;15.35;;;10.07;;
67715;SDS011;54508;43.238;25.306;2022-07-29T06:08:18;14.30;;;10.93;;
67715;SDS011;54508;43.238;25.306;2022-07-29T06:10:44;16.87;;;10.17;;
67715;SDS011;54508;43.238;25.306;2022-07-29T06:13:10;15.30;;;9.90;;
67715;SDS011;54508;43.238;25.306;2022-07-29T06:15:36;17.27;;;10.40;;
67715;SDS011;54508;43.238;25.306;2022-07-29T06:18:01;10.30;;;9.20;;
67715;SDS011;54508;43.238;25.306;2022-07-29T06:20:28;16.25;;;9.60;;
67715;SDS011;54508;43.238;25.306;2022-07-29T06:22:55;17.27;;;9.83;;
67715;SDS011;54508;43.238;25.306;2022-07-29T06:25:20;14.43;;;9.68;;
67715;SDS011;54508;43.238;25.306;2022-07-29T06:27:46;12.93;;;8.50;;
67715;SDS011;54508;43.238;25.306;2022-07-29T06:30:11;13.43;;;9.00;;
67715;SDS011;54508;43.238;25.306;2022-07-29T06:32:37;13.02;;;9.30;;
67715;SDS011;54508;43.238;25.306;2022-07-29T06:35:03;11.53;;;9.13;;
67715;SDS011;54508;43.238;25.306;2022-07-29T06:37:28;10.30;;;8.70;;
67715;SDS011;54508;43.238;25.306;2022-07-29T06:39:54;11.83;;;8.33;;
67715;SDS011;54508;43.238;25.306;2022-07-29T06:42:41;13.10;;;9.35;;
67715;SDS011;54508;43.238;25.306;2022-07-29T06:45:10;13.80;;;9.02;;
67715;SDS011;54508;43.238;25.306;2022-07-29T06:47:36;11.85;;;9.48;;
67715;SDS011;54508;43.238;25.306;2022-07-29T06:50:02;9.57;;;8.37;;
67715;SDS011;54508;43.238;25.306;2022-07-29T06:52:28;14.07;;;8.80;;
67715;SDS011;54508;43.238;25.306;2022-07-29T06:54:54;22.17;;;9.00;;
67715;SDS011;54508;43.238;25.306;2022-07-29T06:57:20;12.37;;;8.57;;
67715;SDS011;54508;43.238;25.306;2022-07-29T06:59:46;13.05;;;8.27;;
67715;SDS011;54508;43.238;25.306;2022-07-29T07:02:12;9.25;;;8.35;;
67715;SDS011;54508;43.238;25.306;2022-07-29T07:04:37;13.00;;;8.30;;
67715;SDS011;54508;43.238;25.306;2022-07-29T07:07:03;9.97;;;8.10;;
67715;SDS011;54508;43.238;25.306;2022-07-29T07:09:28;22.33;;;8.88;;
67715;SDS011;54508;43.238;25.306;2022-07-29T07:11:54;12.55;;;7.93;;
67715;SDS011;54508;43.238;25.306;2022-07-29T07:14:19;19.47;;;8.67;;
67715;SDS011;54508;43.238;25.306;2022-07-29T07:16:45;16.90;;;8.27;;
67715;SDS011;54508;43.238;25.306;2022-07-29T07:19:10;13.57;;;7.47;;
67715;SDS011;54508;43.238;25.306;2022-07-29T07:21:36;13.88;;;7.53;;
67715;SDS011;54508;43.238;25.306;2022-07-29T07:24:01;11.70;;;7.40;;
67715;SDS011;54508;43.238;25.306;2022-07-29T07:26:27;9.00;;;7.53;;
67715;SDS011;54508;43.238;25.306;2022-07-29T07:28:52;9.80;;;6.75;;
67715;SDS011;54508;43.238;25.306;2022-07-29T07:31:18;11.77;;;7.07;;
67715;SDS011;54508;43.238;25.306;2022-07-29T07:33:43;14.27;;;7.07;;
67715;SDS011;54508;43.238;25.306;2022-07-29T07:36:09;9.82;;;8.23;;
67715;SDS011;54508;43.238;25.306;2022-07-29T07:38:34;13.63;;;8.00;;
67715;SDS011;54508;43.238;25.306;2022-07-29T07:41:00;8.53;;;7.03;;
67715;SDS011;54508;43.238;25.306;2022-07-29T07:43:26;9.95;;;7.72;;
67715;SDS011;54508;43.238;25.306;2022-07-29T07:45:51;7.10;;;6.40;;
67715;SDS011;54508;43.238;25.306;2022-07-29T07:48:17;7.05;;;6.25;;
67715;SDS011;54508;43.238;25.306;2022-07-29T07:50:43;15.40;;;12.37;;
67715;SDS011;54508;43.238;25.306;2022-07-29T07:53:09;11.63;;;10.45;;
67715;SDS011;54508;43.238;25.306;2022-07-29T07:55:39;9.47;;;8.47;;
67715;SDS011;54508;43.238;25.306;2022-07-29T07:58:05;9.88;;;8.95;;
67715;SDS011;54508;43.238;25.306;2022-07-29T08:00:30;9.23;;;8.40;;
67715;SDS011;54508;43.238;25.306;2022-07-29T08:02:57;11.03;;;7.20;;
67715;SDS011;54508;43.238;25.306;2022-07-29T08:05:23;10.20;;;7.55;;
67715;SDS011;54508;43.238;25.306;2022-07-29T08:07:49;8.60;;;7.00;;
67715;SDS011;54508;43.238;25.306;2022-07-29T08:10:15;8.80;;;7.05;;
67715;SDS011;54508;43.238;25.306;2022-07-29T08:13:02;9.85;;;6.65;;
67715;SDS011;54508;43.238;25.306;2022-07-29T08:15:28;6.40;;;5.80;;
67715;SDS011;54508;43.238;25.306;2022-07-29T08:17:54;11.05;;;5.80;;
67715;SDS011;54508;43.238;25.306;2022-07-29T08:20:19;15.30;;;5.43;;
67715;SDS011;54508;43.238;25.306;2022-07-29T08:22:45;5.97;;;5.43;;
67715;SDS011;54508;43.238;25.306;2022-07-29T08:25:10;5.50;;;5.00;;
67715;SDS011;54508;43.238;25.306;2022-07-29T08:27:35;5.50;;;5.00;;
67715;SDS011;54508;43.238;25.306;2022-07-29T08:30:01;4.90;;;4.50;;
67715;SDS011;54508;43.238;25.306;2022-07-29T08:32:26;5.67;;;4.53;;
67715;SDS011;54508;43.238;25.306;2022-07-29T08:34:53;6.78;;;4.70;;
67715;SDS011;54508;43.238;25.306;2022-07-29T08:37:19;5.97;;;4.67;;
67715;SDS011;54508;43.238;25.306;2022-07-29T08:39:44;5.30;;;4.33;;
67715;SDS011;54508;43.238;25.306;2022-07-29T08:42:10;7.35;;;4.25;;
67715;SDS011;54508;43.238;25.306;2022-07-29T08:44:36;4.82;;;4.40;;
67715;SDS011;54508;43.238;25.306;2022-07-29T08:47:02;4.77;;;4.37;;
67715;SDS011;54508;43.238;25.306;2022-07-29T08:49:28;4.82;;;4.18;;
67715;SDS011;54508;43.238;25.306;2022-07-29T08:51:54;4.47;;;4.07;;
67715;SDS011;54508;43.238;25.306;2022-07-29T08:54:20;4.67;;;3.70;;
67715;SDS011;54508;43.238;25.306;2022-07-29T08:56:50;4.25;;;3.85;;
67715;SDS011;54508;43.238;25.306;2022-07-29T08:59:17;4.78;;;3.53;;
67715;SDS011;54508;43.238;25.306;2022-07-29T09:01:45;4.40;;;3.38;;
67715;SDS011;54508;43.238;25.306;2022-07-29T09:04:11;5.15;;;3.50;;
67715;SDS011;54508;43.238;25.306;2022-07-29T09:06:39;3.57;;;3.27;;
67715;SDS011;54508;43.238;25.306;2022-07-29T09:09:08;6.43;;;3.47;;
67715;SDS011;54508;43.238;25.306;2022-07-29T09:11:34;4.77;;;3.40;;
67715;SDS011;54508;43.238;25.306;2022-07-29T09:14:00;3.67;;;3.38;;
67715;SDS011;54508;43.238;25.306;2022-07-29T09:16:25;9.97;;;3.40;;
67715;SDS011;54508;43.238;25.306;2022-07-29T09:18:51;6.47;;;3.10;;
67715;SDS011;54508;43.238;25.306;2022-07-29T09:21:16;3.20;;;2.70;;
67715;SDS011;54508;43.238;25.306;2022-07-29T09:26:37;3.30;;;2.90;;
67715;SDS011;54508;43.238;25.306;2022-07-29T09:29:16;2.80;;;2.60;;
67715;SDS011;54508;43.238;25.306;2022-07-29T09:31:47;4.65;;;2.30;;
67715;SDS011;54508;43.238;25.306;2022-07-29T09:34:14;11.43;;;2.67;;
67715;SDS011;54508;43.238;25.306;2022-07-29T09:36:42;9.18;;;2.42;;
67715;SDS011;54508;43.238;25.306;2022-07-29T09:39:09;6.47;;;2.93;;
67715;SDS011;54508;43.238;25.306;2022-07-29T09:41:48;5.53;;;2.75;;
67715;SDS011;54508;43.238;25.306;2022-07-29T09:44:15;7.00;;;3.00;;
67715;SDS011;54508;43.238;25.306;2022-07-29T09:47:02;6.88;;;3.00;;
67715;SDS011;54508;43.238;25.306;2022-07-29T09:49:31;5.80;;;2.80;;
67715;SDS011;54508;43.238;25.306;2022-07-29T09:52:00;4.88;;;2.80;;
67715;SDS011;54508;43.238;25.306;2022-07-29T09:54:30;8.63;;;2.75;;
67715;SDS011;54508;43.238;25.306;2022-07-29T09:57:02;9.00;;;2.95;;
67715;SDS011;54508;43.238;25.306;2022-07-29T09:59:29;5.03;;;2.50;;
67715;SDS011;54508;43.238;25.306;2022-07-29T10:01:55;6.00;;;2.60;;
67715;SDS011;54508;43.238;25.306;2022-07-29T10:04:20;2.42;;;2.22;;
67715;SDS011;54508;43.238;25.306;2022-07-29T10:06:59;6.57;;;2.40;;
67715;SDS011;54508;43.238;25.306;2022-07-29T10:09:25;3.65;;;2.53;;
67715;SDS011;54508;43.238;25.306;2022-07-29T10:14:36;4.97;;;3.53;;
67715;SDS011;54508;43.238;25.306;2022-07-29T10:17:03;3.70;;;3.40;;
67715;SDS011;54508;43.238;25.306;2022-07-29T10:19:30;4.20;;;3.35;;
67715;SDS011;54508;43.238;25.306;2022-07-29T10:21:59;4.13;;;3.72;;
67715;SDS011;54508;43.238;25.306;2022-07-29T10:24:26;4.03;;;3.55;;
67715;SDS011;54508;43.238;25.306;2022-07-29T10:26:56;6.28;;;4.20;;
67715;SDS011;54508;43.238;25.306;2022-07-29T10:29:23;4.40;;;3.70;;
67715;SDS011;54508;43.238;25.306;2022-07-29T10:31:56;3.97;;;3.60;;
67715;SDS011;54508;43.238;25.306;2022-07-29T10:43:38;3.58;;;3.28;;
67715;SDS011;54508;43.238;25.306;2022-07-29T10:46:06;3.53;;;3.13;;
67715;SDS011;54508;43.238;25.306;2022-07-29T10:48:32;4.35;;;2.58;;
67715;SDS011;54508;43.238;25.306;2022-07-29T10:50:58;2.90;;;2.60;;
67715;SDS011;54508;43.238;25.306;2022-07-29T10:56:27;3.03;;;2.75;;
67715;SDS011;54508;43.238;25.306;2022-07-29T11:01:46;2.92;;;2.63;;
67715;SDS011;54508;43.238;25.306;2022-07-29T11:04:12;3.85;;;2.70;;
67715;SDS011;54508;43.238;25.306;2022-07-29T11:09:32;3.40;;;3.10;;
67715;SDS011;54508;43.238;25.306;2022-07-29T11:11:58;3.97;;;2.80;;
67715;SDS011;54508;43.238;25.306;2022-07-29T11:17:17;2.80;;;2.50;;
67715;SDS011;54508;43.238;25.306;2022-07-29T11:19:42;7.93;;;2.67;;
67715;SDS011;54508;43.238;25.306;2022-07-29T11:22:09;2.97;;;2.67;;
67715;SDS011;54508;43.238;25.306;2022-07-29T11:24:36;2.80;;;2.22;;
67715;SDS011;54508;43.238;25.306;2022-07-29T11:27:08;2.20;;;2.00;;
67715;SDS011;54508;43.238;25.306;2022-07-29T11:29:59;2.55;;;2.35;;
67715;SDS011;54508;43.238;25.306;2022-07-29T11:32:35;2.38;;;2.10;;
67715;SDS011;54508;43.238;25.306;2022-07-29T11:37:40;4.57;;;2.33;;
67715;SDS011;54508;43.238;25.306;2022-07-29T11:45:01;3.10;;;2.80;;
67715;SDS011;54508;43.238;25.306;2022-07-29T11:47:35;3.50;;;2.83;;
67715;SDS011;54508;43.238;25.306;2022-07-29T11:50:13;3.15;;;2.85;;
67715;SDS011;54508;43.238;25.306;2022-07-29T11:52:44;6.38;;;2.95;;
67715;SDS011;54508;43.238;25.306;2022-07-29T11:55:12;3.88;;;3.08;;
67715;SDS011;54508;43.238;25.306;2022-07-29T11:57:47;4.00;;;3.22;;
67715;SDS011;54508;43.238;25.306;2022-07-29T12:00:28;6.50;;;3.03;;
67715;SDS011;54508;43.238;25.306;2022-07-29T12:02:53;3.80;;;3.40;;
67715;SDS011;54508;43.238;25.306;2022-07-29T12:05:20;4.18;;;3.05;;
67715;SDS011;54508;43.238;25.306;2022-07-29T12:07:46;7.40;;;3.30;;
67715;SDS011;54508;43.238;25.306;2022-07-29T12:10:11;4.37;;;3.67;;
67715;SDS011;54508;43.238;25.306;2022-07-29T12:12:37;4.15;;;3.40;;
67715;SDS011;54508;43.238;25.306;2022-07-29T12:15:13;4.15;;;3.20;;
67715;SDS011;54508;43.238;25.306;2022-07-29T12:17:43;5.13;;;4.20;;
67715;SDS011;54508;43.238;25.306;2022-07-29T12:20:09;4.53;;;4.13;;
67715;SDS011;54508;43.238;25.306;2022-07-29T12:22:36;7.40;;;6.03;;
67715;SDS011;54508;43.238;25.306;2022-07-29T12:25:12;9.17;;;8.23;;
67715;SDS011;54508;43.238;25.306;2022-07-29T12:27:40;11.82;;;10.20;;
67715;SDS011;54508;43.238;25.306;2022-07-29T12:30:09;11.40;;;10.23;;
67715;SDS011;54508;43.238;25.306;2022-07-29T12:35:10;9.88;;;8.38;;
67715;SDS011;54508;43.238;25.306;2022-07-29T12:37:38;8.60;;;7.80;;
67715;SDS011;54508;43.238;25.306;2022-07-29T12:40:06;9.27;;;7.75;;
67715;SDS011;54508;43.238;25.306;2022-07-29T12:42:33;10.07;;;7.65;;
67715;SDS011;54508;43.238;25.306;2022-07-29T12:44:59;9.43;;;7.30;;
67715;SDS011;54508;43.238;25.306;2022-07-29T12:47:25;8.13;;;6.90;;
67715;SDS011;54508;43.238;25.306;2022-07-29T12:49:51;9.57;;;6.30;;
67715;SDS011;54508;43.238;25.306;2022-07-29T12:52:33;7.95;;;6.32;;
67715;SDS011;54508;43.238;25.306;2022-07-29T12:54:59;6.73;;;6.00;;
67715;SDS011;54508;43.238;25.306;2022-07-29T12:57:25;9.48;;;6.13;;
67715;SDS011;54508;43.238;25.306;2022-07-29T13:00:05;5.82;;;4.85;;
67715;SDS011;54508;43.238;25.306;2022-07-29T13:02:36;5.20;;;4.70;;
67715;SDS011;54508;43.238;25.306;2022-07-29T13:05:02;5.55;;;4.95;;
67715;SDS011;54508;43.238;25.306;2022-07-29T13:07:30;5.00;;;4.50;;
67715;SDS011;54508;43.238;25.306;2022-07-29T13:10:19;4.65;;;4.15;;
67715;SDS011;54508;43.238;25.306;2022-07-29T13:15:34;4.80;;;4.00;;
67715;SDS011;54508;43.238;25.306;2022-07-29T13:18:00;5.65;;;3.90;;
67715;SDS011;54508;43.238;25.306;2022-07-29T13:20:26;4.27;;;3.67;;
67715;SDS011;54508;43.238;25.306;2022-07-29T13:22:56;4.10;;;3.70;;
67715;SDS011;54508;43.238;25.306;2022-07-29T13:25:24;4.13;;;3.60;;
67715;SDS011;54508;43.238;25.306;2022-07-29T13:27:54;4.00;;;3.60;;
67715;SDS011;54508;43.238;25.306;2022-07-29T13:30:20;3.90;;;3.50;;
67715;SDS011;54508;43.238;25.306;2022-07-29T13:32:46;4.05;;;3.60;;
67715;SDS011;54508;43.238;25.306;2022-07-29T13:35:12;3.95;;;3.55;;
67715;SDS011;54508;43.238;25.306;2022-07-29T13:37:38;3.45;;;3.15;;
67715;SDS011;54508;43.238;25.306;2022-07-29T13:40:05;3.78;;;3.45;;
67715;SDS011;54508;43.238;25.306;2022-07-29T13:42:34;3.53;;;3.20;;
67715;SDS011;54508;43.238;25.306;2022-07-29T13:44:59;3.67;;;3.35;;
67715;SDS011;54508;43.238;25.306;2022-07-29T13:47:25;3.40;;;2.92;;
67715;SDS011;54508;43.238;25.306;2022-07-29T13:49:50;4.80;;;3.40;;
67715;SDS011;54508;43.238;25.306;2022-07-29T13:52:16;3.90;;;3.60;;
67715;SDS011;54508;43.238;25.306;2022-07-29T13:54:42;4.70;;;4.30;;
67715;SDS011;54508;43.238;25.306;2022-07-29T13:57:08;5.40;;;3.72;;
67715;SDS011;54508;43.238;25.306;2022-07-29T13:59:38;4.00;;;3.60;;
67715;SDS011;54508;43.238;25.306;2022-07-29T14:02:04;4.70;;;4.22;;
67715;SDS011;54508;43.238;25.306;2022-07-29T14:04:30;3.80;;;3.42;;
67715;SDS011;54508;43.238;25.306;2022-07-29T14:06:56;4.32;;;3.97;;
67715;SDS011;54508;43.238;25.306;2022-07-29T14:09:21;6.33;;;3.90;;
67715;SDS011;54508;43.238;25.306;2022-07-29T14:11:47;6.27;;;3.80;;
67715;SDS011;54508;43.238;25.306;2022-07-29T14:14:14;3.42;;;3.13;;
67715;SDS011;54508;43.238;25.306;2022-07-29T14:16:40;3.42;;;3.05;;
67715;SDS011;54508;43.238;25.306;2022-07-29T14:19:05;3.88;;;3.30;;
67715;SDS011;54508;43.238;25.306;2022-07-29T14:21:31;3.60;;;3.30;;
67715;SDS011;54508;43.238;25.306;2022-07-29T14:23:57;4.32;;;3.63;;
67715;SDS011;54508;43.238;25.306;2022-07-29T14:26:23;5.17;;;3.30;;
67715;SDS011;54508;43.238;25.306;2022-07-29T14:28:48;3.50;;;3.20;;
67715;SDS011;54508;43.238;25.306;2022-07-29T14:31:14;2.93;;;2.63;;
67715;SDS011;54508;43.238;25.306;2022-07-29T14:33:40;4.05;;;3.25;;
67715;SDS011;54508;43.238;25.306;2022-07-29T14:36:06;3.78;;;3.15;;
67715;SDS011;54508;43.238;25.306;2022-07-29T14:38:31;3.97;;;3.60;;
67715;SDS011;54508;43.238;25.306;2022-07-29T14:40:57;3.57;;;3.27;;
67715;SDS011;54508;43.238;25.306;2022-07-29T14:43:22;3.77;;;3.40;;
67715;SDS011;54508;43.238;25.306;2022-07-29T14:45:48;3.65;;;3.25;;
67715;SDS011;54508;43.238;25.306;2022-07-29T14:48:14;3.93;;;3.53;;
67715;SDS011;54508;43.238;25.306;2022-07-29T14:50:39;3.72;;;3.40;;
67715;SDS011;54508;43.238;25.306;2022-07-29T14:53:05;4.30;;;3.72;;
67715;SDS011;54508;43.238;25.306;2022-07-29T14:55:30;3.80;;;3.50;;
67715;SDS011;54508;43.238;25.306;2022-07-29T14:57:56;3.38;;;3.08;;
67715;SDS011;54508;43.238;25.306;2022-07-29T15:00:22;3.58;;;3.28;;
67715;SDS011;54508;43.238;25.306;2022-07-29T15:02:48;6.38;;;3.30;;
67715;SDS011;54508;43.238;25.306;2022-07-29T15:05:13;7.28;;;3.85;;
67715;SDS011;54508;43.238;25.306;2022-07-29T15:07:39;4.67;;;3.53;;
67715;SDS011;54508;43.238;25.306;2022-07-29T15:10:04;4.03;;;3.72;;
67715;SDS011;54508;43.238;25.306;2022-07-29T15:12:30;3.83;;;3.42;;
67715;SDS011;54508;43.238;25.306;2022-07-29T15:14:56;3.50;;;3.20;;
67715;SDS011;54508;43.238;25.306;2022-07-29T15:17:22;4.60;;;3.33;;
67715;SDS011;54508;43.238;25.306;2022-07-29T15:19:47;4.37;;;3.67;;
67715;SDS011;54508;43.238;25.306;2022-07-29T15:22:13;4.10;;;3.70;;
67715;SDS011;54508;43.238;25.306;2022-07-29T15:24:38;7.57;;;3.85;;
67715;SDS011;54508;43.238;25.306;2022-07-29T15:27:04;3.55;;;3.25;;